sensor_id;sensor_type;location;lat;lon;timestamp;pressure;altitude;pressure_sealevel;temperature;humidity
24045;BME280;26257;49.442;8.422;2023-03-23T00:01:12;99704.63;;;16.39;66.03
24045;BME280;26257;49.442;8.422;2023-03-23T00:03:40;99701.88;;;16.42;66.21
24045;BME280;26257;49.442;8.422;2023-03-23T00:06:08;99700.13;;;16.41;66.17
24045;BME280;26257;49.442;8.422;2023-03-23T00:08:35;99693.03;;;16.40;66.45
24045;BME280;26257;49.442;8.422;2023-03-23T00:11:21;99699.22;;;16.42;66.64
24045;BME280;26257;49.442;8.422;2023-03-23T00:13:48;99682.44;;;16.37;66.72
24045;BME280;26257;49.442;8.422;2023-03-23T00:16:19;99683.88;;;16.50;67.20
24045;BME280;26257;49.442;8.422;2023-03-23T00:18:50;99688.09;;;16.60;66.85
24045;BME280;26257;49.442;8.422;2023-03-23T00:21:20;99685.44;;;16.60;66.41
24045;BME280;26257;49.442;8.422;2023-03-23T00:23:45;99681.84;;;16.61;66.11
24045;BME280;26257;49.442;8.422;2023-03-23T00:26:11;99687.44;;;16.52;65.72
24045;BME280;26257;49.442;8.422;2023-03-23T00:28:38;99685.59;;;16.54;65.29
24045;BME280;26257;49.442;8.422;2023-03-23T00:31:06;99678.78;;;16.41;65.67
24045;BME280;26257;49.442;8.422;2023-03-23T00:33:34;99677.75;;;16.47;65.35
24045;BME280;26257;49.442;8.422;2023-03-23T00:36:04;99680.38;;;16.48;65.34
24045;BME280;26257;49.442;8.422;2023-03-23T00:38:30;99678.41;;;16.56;65.32
24045;BME280;26257;49.442;8.422;2023-03-23T00:40:56;99670.50;;;16.53;65.00
24045;BME280;26257;49.442;8.422;2023-03-23T00:43:24;99671.63;;;16.43;65.19
24045;BME280;26257;49.442;8.422;2023-03-23T00:45:50;99682.22;;;16.46;64.77
24045;BME280;26257;49.442;8.422;2023-03-23T00:48:21;99687.63;;;16.43;65.13
24045;BME280;26257;49.442;8.422;2023-03-23T00:50:47;99687.53;;;16.46;65.05
24045;BME280;26257;49.442;8.422;2023-03-23T00:53:13;99678.72;;;16.44;65.26
24045;BME280;26257;49.442;8.422;2023-03-23T00:55:41;99682.44;;;16.37;65.33
24045;BME280;26257;49.442;8.422;2023-03-23T00:58:07;99689.78;;;16.29;66.23
24045;BME280;26257;49.442;8.422;2023-03-23T01:00:32;99671.22;;;16.25;66.66
24045;BME280;26257;49.442;8.422;2023-03-23T01:02:58;99680.16;;;16.22;67.09
24045;BME280;26257;49.442;8.422;2023-03-23T01:05:23;99673.84;;;16.26;67.11
24045;BME280;26257;49.442;8.422;2023-03-23T01:07:49;99672.34;;;16.16;67.58
24045;BME280;26257;49.442;8.422;2023-03-23T01:10:15;99663.19;;;16.26;67.43
24045;BME280;26257;49.442;8.422;2023-03-23T01:12:45;99662.63;;;16.14;67.06
24045;BME280;26257;49.442;8.422;2023-03-23T01:15:16;99656.19;;;16.22;67.05
24045;BME280;26257;49.442;8.422;2023-03-23T01:17:43;99655.97;;;16.31;66.17
24045;BME280;26257;49.442;8.422;2023-03-23T01:20:09;99641.88;;;16.26;65.60
24045;BME280;26257;49.442;8.422;2023-03-23T01:22:36;99652.34;;;16.32;66.14
24045;BME280;26257;49.442;8.422;2023-03-23T01:25:04;99628.94;;;16.11;66.65
24045;BME280;26257;49.442;8.422;2023-03-23T01:27:29;99642.38;;;16.06;67.27
24045;BME280;26257;49.442;8.422;2023-03-23T01:29:55;99645.44;;;16.25;66.32
24045;BME280;26257;49.442;8.422;2023-03-23T01:32:20;99631.28;;;16.23;66.47
24045;BME280;26257;49.442;8.422;2023-03-23T01:34:46;99628.84;;;16.14;66.84
24045;BME280;26257;49.442;8.422;2023-03-23T01:37:11;99635.25;;;16.07;67.32
24045;BME280;26257;49.442;8.422;2023-03-23T01:39:37;99626.66;;;15.96;68.06
24045;BME280;26257;49.442;8.422;2023-03-23T01:42:03;99627.38;;;16.02;68.53
24045;BME280;26257;49.442;8.422;2023-03-23T01:47:00;99619.53;;;15.98;68.58
24045;BME280;26257;49.442;8.422;2023-03-23T01:49:33;99610.84;;;15.90;69.38
24045;BME280;26257;49.442;8.422;2023-03-23T01:54:29;99609.97;;;15.89;70.11
24045;BME280;26257;49.442;8.422;2023-03-23T01:57:01;99602.16;;;15.82;70.35
24045;BME280;26257;49.442;8.422;2023-03-23T01:59:29;99595.13;;;15.78;71.14
24045;BME280;26257;49.442;8.422;2023-03-23T02:01:56;99600.53;;;15.75;71.51
24045;BME280;26257;49.442;8.422;2023-03-23T02:04:23;99605.22;;;15.65;72.35
24045;BME280;26257;49.442;8.422;2023-03-23T02:06:54;99597.03;;;15.74;72.22
24045;BME280;26257;49.442;8.422;2023-03-23T02:09:25;99617.97;;;15.88;71.82
24045;BME280;26257;49.442;8.422;2023-03-23T02:11:53;99617.25;;;15.81;71.56
24045;BME280;26257;49.442;8.422;2023-03-23T02:14:19;99604.50;;;15.94;71.72
24045;BME280;26257;49.442;8.422;2023-03-23T02:17:04;99618.38;;;16.06;70.70
24045;BME280;26257;49.442;8.422;2023-03-23T02:24:57;99616.56;;;16.08;70.41
24045;BME280;26257;49.442;8.422;2023-03-23T02:35:38;99600.69;;;16.04;71.20
24045;BME280;26257;49.442;8.422;2023-03-23T02:38:08;99602.66;;;15.96;71.19
24045;BME280;26257;49.442;8.422;2023-03-23T02:40:43;99595.63;;;15.95;71.54
24045;BME280;26257;49.442;8.422;2023-03-23T02:43:20;99594.31;;;16.11;70.90
24045;BME280;26257;49.442;8.422;2023-03-23T02:45:51;99575.88;;;16.02;70.98
24045;BME280;26257;49.442;8.422;2023-03-23T02:48:20;99580.06;;;16.12;70.62
24045;BME280;26257;49.442;8.422;2023-03-23T02:50:51;99579.97;;;16.15;69.80
24045;BME280;26257;49.442;8.422;2023-03-23T02:53:20;99580.88;;;16.14;70.36
24045;BME280;26257;49.442;8.422;2023-03-23T02:55:48;99581.63;;;16.19;69.60
24045;BME280;26257;49.442;8.422;2023-03-23T02:58:14;99577.31;;;16.15;70.09
24045;BME280;26257;49.442;8.422;2023-03-23T03:00:40;99584.44;;;16.15;70.34
24045;BME280;26257;49.442;8.422;2023-03-23T03:03:13;99576.91;;;16.30;69.27
24045;BME280;26257;49.442;8.422;2023-03-23T03:05:46;99585.91;;;16.26;68.60
24045;BME280;26257;49.442;8.422;2023-03-23T03:11:04;99567.34;;;16.23;68.60
24045;BME280;26257;49.442;8.422;2023-03-23T03:13:51;99566.25;;;16.30;67.96
24045;BME280;26257;49.442;8.422;2023-03-23T03:16:40;99565.25;;;16.34;67.55
24045;BME280;26257;49.442;8.422;2023-03-23T03:19:11;99561.75;;;16.32;67.44
24045;BME280;26257;49.442;8.422;2023-03-23T03:21:41;99569.47;;;16.09;68.43
24045;BME280;26257;49.442;8.422;2023-03-23T03:24:08;99576.41;;;16.48;66.67
24045;BME280;26257;49.442;8.422;2023-03-23T03:26:38;99579.06;;;16.48;66.19
24045;BME280;26257;49.442;8.422;2023-03-23T03:29:05;99571.34;;;16.38;66.32
24045;BME280;26257;49.442;8.422;2023-03-23T03:31:38;99565.91;;;16.75;65.02
24045;BME280;26257;49.442;8.422;2023-03-23T03:34:05;99580.84;;;16.49;65.51
24045;BME280;26257;49.442;8.422;2023-03-23T03:36:33;99565.94;;;16.41;66.61
24045;BME280;26257;49.442;8.422;2023-03-23T03:39:09;99572.66;;;16.57;65.90
24045;BME280;26257;49.442;8.422;2023-03-23T03:41:36;99581.22;;;16.68;65.75
24045;BME280;26257;49.442;8.422;2023-03-23T03:44:03;99572.78;;;16.52;66.41
24045;BME280;26257;49.442;8.422;2023-03-23T03:46:29;99569.34;;;16.47;66.60
24045;BME280;26257;49.442;8.422;2023-03-23T03:48:57;99575.38;;;16.55;66.70
24045;BME280;26257;49.442;8.422;2023-03-23T03:51:23;99561.50;;;16.41;67.56
24045;BME280;26257;49.442;8.422;2023-03-23T03:53:49;99563.16;;;16.45;67.55
24045;BME280;26257;49.442;8.422;2023-03-23T03:56:15;99577.63;;;16.69;66.85
24045;BME280;26257;49.442;8.422;2023-03-23T03:58:41;99576.94;;;16.62;66.92
24045;BME280;26257;49.442;8.422;2023-03-23T04:01:08;99571.69;;;16.59;67.19
24045;BME280;26257;49.442;8.422;2023-03-23T04:03:38;99562.78;;;16.60;67.38
24045;BME280;26257;49.442;8.422;2023-03-23T04:06:04;99571.53;;;16.64;67.33
24045;BME280;26257;49.442;8.422;2023-03-23T04:08:30;99579.53;;;16.65;67.01
24045;BME280;26257;49.442;8.422;2023-03-23T04:10:57;99577.22;;;16.50;67.88
24045;BME280;26257;49.442;8.422;2023-03-23T04:13:22;99579.59;;;16.62;67.87
24045;BME280;26257;49.442;8.422;2023-03-23T04:15:48;99566.00;;;16.72;67.78
24045;BME280;26257;49.442;8.422;2023-03-23T04:18:14;99573.59;;;16.54;68.90
24045;BME280;26257;49.442;8.422;2023-03-23T04:20:44;99583.25;;;16.58;70.03
24045;BME280;26257;49.442;8.422;2023-03-23T04:23:12;99586.31;;;16.43;70.96
24045;BME280;26257;49.442;8.422;2023-03-23T04:25:38;99585.16;;;16.21;73.89
24045;BME280;26257;49.442;8.422;2023-03-23T04:28:05;99581.41;;;16.28;74.09
24045;BME280;26257;49.442;8.422;2023-03-23T04:30:30;99598.34;;;16.26;74.08
24045;BME280;26257;49.442;8.422;2023-03-23T04:32:57;99594.66;;;16.31;74.98
24045;BME280;26257;49.442;8.422;2023-03-23T04:35:26;99598.22;;;16.32;75.38
24045;BME280;26257;49.442;8.422;2023-03-23T04:37:53;99606.22;;;16.30;76.18
24045;BME280;26257;49.442;8.422;2023-03-23T04:40:19;99594.78;;;16.27;76.71
24045;BME280;26257;49.442;8.422;2023-03-23T04:42:45;99602.00;;;16.22;78.10
24045;BME280;26257;49.442;8.422;2023-03-23T04:45:14;99607.72;;;16.08;78.97
24045;BME280;26257;49.442;8.422;2023-03-23T04:47:41;99614.09;;;16.01;83.07
24045;BME280;26257;49.442;8.422;2023-03-23T04:52:33;99620.75;;;15.47;91.88
24045;BME280;26257;49.442;8.422;2023-03-23T04:54:58;99623.47;;;15.42;96.48
24045;BME280;26257;49.442;8.422;2023-03-23T04:57:24;99619.28;;;15.32;98.34
24045;BME280;26257;49.442;8.422;2023-03-23T04:59:53;99639.63;;;15.34;97.71
24045;BME280;26257;49.442;8.422;2023-03-23T05:02:18;99622.66;;;15.38;96.93
24045;BME280;26257;49.442;8.422;2023-03-23T05:04:44;99633.19;;;15.44;96.66
24045;BME280;26257;49.442;8.422;2023-03-23T05:07:10;99622.50;;;15.48;95.37
24045;BME280;26257;49.442;8.422;2023-03-23T05:09:36;99612.44;;;15.60;93.70
24045;BME280;26257;49.442;8.422;2023-03-23T05:12:09;99627.09;;;15.78;93.27
24045;BME280;26257;49.442;8.422;2023-03-23T05:14:35;99625.38;;;15.77;92.11
24045;BME280;26257;49.442;8.422;2023-03-23T05:17:01;99629.50;;;15.90;90.33
24045;BME280;26257;49.442;8.422;2023-03-23T05:19:28;99635.44;;;15.99;89.61
24045;BME280;26257;49.442;8.422;2023-03-23T05:21:59;99630.25;;;15.95;88.69
24045;BME280;26257;49.442;8.422;2023-03-23T05:24:30;99623.00;;;16.00;87.69
24045;BME280;26257;49.442;8.422;2023-03-23T05:26:58;99624.59;;;16.07;87.47
24045;BME280;26257;49.442;8.422;2023-03-23T05:29:36;99628.28;;;16.03;87.36
24045;BME280;26257;49.442;8.422;2023-03-23T05:32:27;99638.69;;;16.12;87.38
24045;BME280;26257;49.442;8.422;2023-03-23T05:35:00;99625.47;;;16.08;87.36
24045;BME280;26257;49.442;8.422;2023-03-23T05:37:28;99637.88;;;16.08;87.04
24045;BME280;26257;49.442;8.422;2023-03-23T05:40:02;99628.97;;;16.10;86.44
24045;BME280;26257;49.442;8.422;2023-03-23T05:42:36;99634.84;;;16.22;85.31
24045;BME280;26257;49.442;8.422;2023-03-23T05:45:03;99631.09;;;16.31;84.47
24045;BME280;26257;49.442;8.422;2023-03-23T05:47:36;99632.56;;;16.42;83.70
24045;BME280;26257;49.442;8.422;2023-03-23T05:50:06;99621.31;;;16.31;83.70
24045;BME280;26257;49.442;8.422;2023-03-23T05:52:36;99636.47;;;16.29;84.89
24045;BME280;26257;49.442;8.422;2023-03-23T05:57:54;99643.38;;;16.36;83.42
24045;BME280;26257;49.442;8.422;2023-03-23T06:00:52;99657.53;;;16.38;82.71
24045;BME280;26257;49.442;8.422;2023-03-23T06:03:22;99657.13;;;16.21;84.86
24045;BME280;26257;49.442;8.422;2023-03-23T06:06:43;99661.75;;;16.13;84.90
24045;BME280;26257;49.442;8.422;2023-03-23T06:09:59;99667.22;;;16.07;85.94
24045;BME280;26257;49.442;8.422;2023-03-23T06:12:28;99666.25;;;16.11;84.95
24045;BME280;26257;49.442;8.422;2023-03-23T06:14:54;99668.81;;;16.14;84.33
24045;BME280;26257;49.442;8.422;2023-03-23T06:17:19;99657.41;;;16.09;84.77
24045;BME280;26257;49.442;8.422;2023-03-23T06:19:45;99667.38;;;16.01;85.14
24045;BME280;26257;49.442;8.422;2023-03-23T06:22:12;99670.66;;;16.12;84.35
24045;BME280;26257;49.442;8.422;2023-03-23T06:24:37;99676.78;;;16.16;84.42
24045;BME280;26257;49.442;8.422;2023-03-23T06:27:03;99670.03;;;16.36;83.39
24045;BME280;26257;49.442;8.422;2023-03-23T06:29:30;99668.59;;;16.23;83.35
24045;BME280;26257;49.442;8.422;2023-03-23T06:31:58;99672.56;;;16.07;84.01
24045;BME280;26257;49.442;8.422;2023-03-23T06:34:24;99680.41;;;16.13;84.85
24045;BME280;26257;49.442;8.422;2023-03-23T06:36:50;99680.34;;;16.16;83.97
24045;BME280;26257;49.442;8.422;2023-03-23T06:39:15;99674.91;;;16.19;83.62
24045;BME280;26257;49.442;8.422;2023-03-23T06:41:41;99669.69;;;16.16;84.28
24045;BME280;26257;49.442;8.422;2023-03-23T06:44:06;99684.22;;;16.03;86.33
24045;BME280;26257;49.442;8.422;2023-03-23T06:46:33;99688.78;;;15.98;86.98
24045;BME280;26257;49.442;8.422;2023-03-23T06:48:59;99698.31;;;16.06;88.08
24045;BME280;26257;49.442;8.422;2023-03-23T06:51:25;99696.09;;;15.88;88.20
24045;BME280;26257;49.442;8.422;2023-03-23T06:53:50;99708.19;;;16.03;87.83
24045;BME280;26257;49.442;8.422;2023-03-23T06:56:16;99712.78;;;15.96;87.65
24045;BME280;26257;49.442;8.422;2023-03-23T06:58:41;99713.84;;;15.88;89.46
24045;BME280;26257;49.442;8.422;2023-03-23T07:01:08;99719.88;;;15.96;90.12
24045;BME280;26257;49.442;8.422;2023-03-23T07:03:34;99726.91;;;15.98;89.75
24045;BME280;26257;49.442;8.422;2023-03-23T07:05:59;99741.97;;;16.01;91.23
24045;BME280;26257;49.442;8.422;2023-03-23T07:08:25;99745.03;;;15.84;93.34
24045;BME280;26257;49.442;8.422;2023-03-23T07:10:52;99750.72;;;16.06;92.99
24045;BME280;26257;49.442;8.422;2023-03-23T07:13:19;99742.78;;;15.65;99.18
24045;BME280;26257;49.442;8.422;2023-03-23T07:15:45;99753.50;;;15.62;100.00
24045;BME280;26257;49.442;8.422;2023-03-23T07:18:11;99753.13;;;15.80;99.79
24045;BME280;26257;49.442;8.422;2023-03-23T07:20:40;99745.09;;;15.81;100.00
24045;BME280;26257;49.442;8.422;2023-03-23T07:23:09;99747.63;;;15.87;100.00
24045;BME280;26257;49.442;8.422;2023-03-23T07:25:35;99738.94;;;15.78;100.00
24045;BME280;26257;49.442;8.422;2023-03-23T07:28:04;99746.81;;;15.84;100.00
24045;BME280;26257;49.442;8.422;2023-03-23T07:30:30;99752.13;;;15.84;100.00
24045;BME280;26257;49.442;8.422;2023-03-23T07:32:56;99754.59;;;15.53;100.00
24045;BME280;26257;49.442;8.422;2023-03-23T07:35:22;99766.25;;;15.44;100.00
24045;BME280;26257;49.442;8.422;2023-03-23T07:37:48;99770.03;;;15.34;100.00
24045;BME280;26257;49.442;8.422;2023-03-23T07:40:15;99762.88;;;15.36;100.00
24045;BME280;26257;49.442;8.422;2023-03-23T07:42:55;99741.97;;;15.18;100.00
24045;BME280;26257;49.442;8.422;2023-03-23T07:45:22;99759.63;;;15.22;100.00
24045;BME280;26257;49.442;8.422;2023-03-23T07:47:49;99785.88;;;15.40;100.00
24045;BME280;26257;49.442;8.422;2023-03-23T07:50:15;99781.78;;;15.23;100.00
24045;BME280;26257;49.442;8.422;2023-03-23T07:52:44;99784.81;;;15.49;100.00
24045;BME280;26257;49.442;8.422;2023-03-23T07:55:11;99782.94;;;15.54;100.00
24045;BME280;26257;49.442;8.422;2023-03-23T07:57:42;99778.56;;;15.52;100.00
24045;BME280;26257;49.442;8.422;2023-03-23T08:00:09;99785.78;;;15.43;100.00
24045;BME280;26257;49.442;8.422;2023-03-23T08:32:01;99808.66;;;15.08;100.00
24045;BME280;26257;49.442;8.422;2023-03-23T08:34:28;99827.28;;;15.09;100.00
24045;BME280;26257;49.442;8.422;2023-03-23T08:36:54;99829.06;;;15.07;100.00
24045;BME280;26257;49.442;8.422;2023-03-23T08:39:20;99818.50;;;15.04;100.00
24045;BME280;26257;49.442;8.422;2023-03-23T08:41:48;99819.41;;;15.02;100.00
24045;BME280;26257;49.442;8.422;2023-03-23T08:44:14;99827.53;;;14.94;100.00
24045;BME280;26257;49.442;8.422;2023-03-23T08:46:40;99838.25;;;14.91;100.00
24045;BME280;26257;49.442;8.422;2023-03-23T08:49:06;99835.78;;;14.80;100.00
24045;BME280;26257;49.442;8.422;2023-03-23T08:51:32;99833.28;;;14.70;100.00
24045;BME280;26257;49.442;8.422;2023-03-23T08:53:58;99835.91;;;14.73;100.00
24045;BME280;26257;49.442;8.422;2023-03-23T08:56:23;99836.63;;;14.82;100.00
24045;BME280;26257;49.442;8.422;2023-03-23T08:58:49;99835.59;;;14.91;100.00
24045;BME280;26257;49.442;8.422;2023-03-23T09:01:15;99839.66;;;15.10;100.00
24045;BME280;26257;49.442;8.422;2023-03-23T09:03:41;99828.09;;;15.13;100.00
24045;BME280;26257;49.442;8.422;2023-03-23T09:06:08;99840.97;;;15.35;100.00
24045;BME280;26257;49.442;8.422;2023-03-23T09:08:34;99828.31;;;15.50;100.00
24045;BME280;26257;49.442;8.422;2023-03-23T09:11:08;99839.34;;;15.74;100.00
24045;BME280;26257;49.442;8.422;2023-03-23T09:13:35;99829.38;;;15.84;100.00
24045;BME280;26257;49.442;8.422;2023-03-23T09:16:02;99831.25;;;15.79;100.00
24045;BME280;26257;49.442;8.422;2023-03-23T09:18:29;99850.75;;;15.81;100.00
24045;BME280;26257;49.442;8.422;2023-03-23T09:20:55;99858.63;;;15.87;100.00
24045;BME280;26257;49.442;8.422;2023-03-23T09:23:20;99853.19;;;15.91;100.00
24045;BME280;26257;49.442;8.422;2023-03-23T09:25:47;99854.72;;;16.01;100.00
24045;BME280;26257;49.442;8.422;2023-03-23T09:28:14;99860.88;;;16.05;100.00
24045;BME280;26257;49.442;8.422;2023-03-23T09:30:40;99845.03;;;15.99;100.00
24045;BME280;26257;49.442;8.422;2023-03-23T09:33:11;99880.38;;;16.07;100.00
24045;BME280;26257;49.442;8.422;2023-03-23T09:35:38;99867.75;;;16.15;100.00
24045;BME280;26257;49.442;8.422;2023-03-23T09:38:05;99868.38;;;16.28;100.00
24045;BME280;26257;49.442;8.422;2023-03-23T09:48:54;99907.22;;;15.52;100.00
24045;BME280;26257;49.442;8.422;2023-03-23T09:54:36;99870.88;;;15.94;100.00
24045;BME280;26257;49.442;8.422;2023-03-23T09:57:03;99872.59;;;15.98;100.00
24045;BME280;26257;49.442;8.422;2023-03-23T10:02:18;99872.50;;;16.02;100.00
24045;BME280;26257;49.442;8.422;2023-03-23T10:04:49;99877.94;;;15.96;100.00
24045;BME280;26257;49.442;8.422;2023-03-23T10:07:23;99866.53;;;15.90;100.00
24045;BME280;26257;49.442;8.422;2023-03-23T10:09:59;99864.72;;;15.92;100.00
24045;BME280;26257;49.442;8.422;2023-03-23T10:15:21;99837.25;;;15.90;100.00
24045;BME280;26257;49.442;8.422;2023-03-23T10:18:14;99850.00;;;16.14;100.00
24045;BME280;26257;49.442;8.422;2023-03-23T10:20:55;99859.91;;;16.09;100.00
24045;BME280;26257;49.442;8.422;2023-03-23T10:26:21;99855.78;;;16.34;100.00
24045;BME280;26257;49.442;8.422;2023-03-23T10:28:52;99845.97;;;16.35;100.00
24045;BME280;26257;49.442;8.422;2023-03-23T10:31:24;99840.69;;;16.33;100.00
24045;BME280;26257;49.442;8.422;2023-03-23T10:33:55;99838.50;;;16.50;100.00
24045;BME280;26257;49.442;8.422;2023-03-23T10:36:26;99843.84;;;16.50;100.00
24045;BME280;26257;49.442;8.422;2023-03-23T10:39:17;99853.44;;;16.96;100.00
24045;BME280;26257;49.442;8.422;2023-03-23T10:41:45;99852.94;;;16.80;100.00
24045;BME280;26257;49.442;8.422;2023-03-23T10:47:00;99855.28;;;16.57;100.00
24045;BME280;26257;49.442;8.422;2023-03-23T10:49:30;99858.34;;;16.77;100.00
24045;BME280;26257;49.442;8.422;2023-03-23T10:54:49;99859.22;;;16.78;100.00
24045;BME280;26257;49.442;8.422;2023-03-23T10:57:25;99868.44;;;16.64;100.00
24045;BME280;26257;49.442;8.422;2023-03-23T10:59:58;99857.25;;;16.86;100.00
24045;BME280;26257;49.442;8.422;2023-03-23T11:02:24;99876.91;;;16.43;100.00
24045;BME280;26257;49.442;8.422;2023-03-23T11:05:00;99867.47;;;16.27;100.00
24045;BME280;26257;49.442;8.422;2023-03-23T11:07:30;99873.88;;;16.20;100.00
24045;BME280;26257;49.442;8.422;2023-03-23T11:10:06;99871.63;;;16.40;100.00
24045;BME280;26257;49.442;8.422;2023-03-23T11:12:36;99871.63;;;16.40;100.00
24045;BME280;26257;49.442;8.422;2023-03-23T11:15:23;99859.84;;;16.50;100.00
24045;BME280;26257;49.442;8.422;2023-03-23T11:18:05;99873.28;;;16.46;100.00
24045;BME280;26257;49.442;8.422;2023-03-23T11:20:44;99885.28;;;16.66;100.00
24045;BME280;26257;49.442;8.422;2023-03-23T11:26:06;99868.78;;;16.49;100.00
24045;BME280;26257;49.442;8.422;2023-03-23T11:28:35;99874.09;;;16.49;100.00
24045;BME280;26257;49.442;8.422;2023-03-23T11:31:05;99879.16;;;16.61;100.00
24045;BME280;26257;49.442;8.422;2023-03-23T11:33:58;99855.09;;;17.00;100.00
24045;BME280;26257;49.442;8.422;2023-03-23T11:36:30;99846.25;;;17.32;100.00
24045;BME280;26257;49.442;8.422;2023-03-23T11:38:56;99847.94;;;17.02;100.00
24045;BME280;26257;49.442;8.422;2023-03-23T11:41:23;99849.69;;;17.03;100.00
24045;BME280;26257;49.442;8.422;2023-03-23T11:43:55;99842.63;;;17.02;100.00
24045;BME280;26257;49.442;8.422;2023-03-23T11:46:26;99844.28;;;17.06;100.00
24045;BME280;26257;49.442;8.422;2023-03-23T11:49:05;99853.75;;;16.84;100.00
24045;BME280;26257;49.442;8.422;2023-03-23T11:51:46;99861.06;;;16.76;100.00
24045;BME280;26257;49.442;8.422;2023-03-23T11:54:33;99854.47;;;16.55;100.00
24045;BME280;26257;49.442;8.422;2023-03-23T11:56:59;99863.03;;;16.67;100.00
24045;BME280;26257;49.442;8.422;2023-03-23T11:59:35;99872.50;;;16.42;100.00
24045;BME280;26257;49.442;8.422;2023-03-23T12:08:08;99845.25;;;16.28;100.00
24045;BME280;26257;49.442;8.422;2023-03-23T12:13:39;99841.13;;;16.15;100.00
24045;BME280;26257;49.442;8.422;2023-03-23T12:27:42;99831.16;;;16.61;100.00
24045;BME280;26257;49.442;8.422;2023-03-23T12:36:50;99826.34;;;16.77;100.00
24045;BME280;26257;49.442;8.422;2023-03-23T12:39:25;99818.75;;;16.96;100.00
24045;BME280;26257;49.442;8.422;2023-03-23T12:42:46;99809.31;;;16.83;100.00
24045;BME280;26257;49.442;8.422;2023-03-23T12:45:00;99808.97;;;16.95;100.00
24045;BME280;26257;49.442;8.422;2023-03-23T12:47:45;99804.22;;;17.07;100.00
24045;BME280;26257;49.442;8.422;2023-03-23T12:50:20;99805.88;;;17.11;100.00
24045;BME280;26257;49.442;8.422;2023-03-23T12:53:05;99824.75;;;17.04;100.00
24045;BME280;26257;49.442;8.422;2023-03-23T12:55:45;99793.56;;;17.07;100.00
24045;BME280;26257;49.442;8.422;2023-03-23T12:58:45;99775.16;;;17.60;100.00
24045;BME280;26257;49.442;8.422;2023-03-23T13:01:18;99800.75;;;17.68;100.00
24045;BME280;26257;49.442;8.422;2023-03-23T13:03:53;99781.81;;;17.45;100.00
24045;BME280;26257;49.442;8.422;2023-03-23T13:09:07;99780.25;;;17.37;100.00
24045;BME280;26257;49.442;8.422;2023-03-23T13:11:39;99800.00;;;16.99;100.00
24045;BME280;26257;49.442;8.422;2023-03-23T13:19:30;99784.22;;;16.90;100.00
24045;BME280;26257;49.442;8.422;2023-03-23T13:22:10;99777.53;;;17.07;99.49
24045;BME280;26257;49.442;8.422;2023-03-23T13:24:55;99784.81;;;17.01;99.40
24045;BME280;26257;49.442;8.422;2023-03-23T13:27:26;99787.75;;;16.92;100.00
24045;BME280;26257;49.442;8.422;2023-03-23T13:29:58;99786.66;;;16.97;100.00
24045;BME280;26257;49.442;8.422;2023-03-23T13:32:36;99795.00;;;16.87;100.00
24045;BME280;26257;49.442;8.422;2023-03-23T13:35:05;99792.22;;;16.90;100.00
24045;BME280;26257;49.442;8.422;2023-03-23T13:37:42;99806.34;;;16.59;100.00
24045;BME280;26257;49.442;8.422;2023-03-23T13:42:55;99800.59;;;16.76;100.00
24045;BME280;26257;49.442;8.422;2023-03-23T13:50:30;99808.09;;;16.60;100.00
24045;BME280;26257;49.442;8.422;2023-03-23T13:53:13;99806.34;;;16.59;100.00
24045;BME280;26257;49.442;8.422;2023-03-23T13:55:42;99777.16;;;16.52;100.00
24045;BME280;26257;49.442;8.422;2023-03-23T13:58:24;99792.25;;;16.54;100.00
24045;BME280;26257;49.442;8.422;2023-03-23T14:01:14;99789.63;;;16.51;100.00
24045;BME280;26257;49.442;8.422;2023-03-23T14:03:45;99793.69;;;16.67;100.00
24045;BME280;26257;49.442;8.422;2023-03-23T14:06:17;99793.44;;;16.78;100.00
24045;BME280;26257;49.442;8.422;2023-03-23T14:08:45;99795.81;;;16.53;100.00
24045;BME280;26257;49.442;8.422;2023-03-23T14:16:22;99784.53;;;16.41;100.00
24045;BME280;26257;49.442;8.422;2023-03-23T14:18:52;99776.53;;;16.41;100.00
24045;BME280;26257;49.442;8.422;2023-03-23T14:21:39;99780.78;;;16.49;100.00
24045;BME280;26257;49.442;8.422;2023-03-23T14:24:16;99771.09;;;16.45;100.00
24045;BME280;26257;49.442;8.422;2023-03-23T14:26:49;99778.38;;;16.39;100.00
24045;BME280;26257;49.442;8.422;2023-03-23T14:29:20;99775.91;;;16.31;100.00
24045;BME280;26257;49.442;8.422;2023-03-23T14:31:53;99791.47;;;16.48;100.00
24045;BME280;26257;49.442;8.422;2023-03-23T14:34:20;99781.63;;;16.51;100.00
24045;BME280;26257;49.442;8.422;2023-03-23T14:36:47;99776.59;;;16.39;100.00
24045;BME280;26257;49.442;8.422;2023-03-23T14:39:25;99803.88;;;16.12;100.00
24045;BME280;26257;49.442;8.422;2023-03-23T14:41:54;99779.84;;;16.15;100.00
24045;BME280;26257;49.442;8.422;2023-03-23T14:44:30;99792.28;;;16.15;100.00
24045;BME280;26257;49.442;8.422;2023-03-23T14:47:02;99769.75;;;16.29;100.00
24045;BME280;26257;49.442;8.422;2023-03-23T14:49:32;99783.56;;;16.06;100.00
24045;BME280;26257;49.442;8.422;2023-03-23T14:52:14;99781.63;;;16.15;100.00
24045;BME280;26257;49.442;8.422;2023-03-23T14:54:41;99784.16;;;16.19;100.00
24045;BME280;26257;49.442;8.422;2023-03-23T14:57:19;99782.38;;;16.21;100.00
24045;BME280;26257;49.442;8.422;2023-03-23T14:59:51;99790.97;;;16.32;100.00
24045;BME280;26257;49.442;8.422;2023-03-23T15:02:27;99793.34;;;16.44;100.00
24045;BME280;26257;49.442;8.422;2023-03-23T15:04:57;99792.66;;;16.36;100.00
24045;BME280;26257;49.442;8.422;2023-03-23T15:07:30;99789.28;;;16.28;100.00
24045;BME280;26257;49.442;8.422;2023-03-23T15:09:56;99799.88;;;16.31;100.00
24045;BME280;26257;49.442;8.422;2023-03-23T15:12:25;99784.16;;;16.21;100.00
24045;BME280;26257;49.442;8.422;2023-03-23T15:15:21;99798.19;;;16.27;100.00
24045;BME280;26257;49.442;8.422;2023-03-23T15:17:47;99798.19;;;16.27;100.00
24045;BME280;26257;49.442;8.422;2023-03-23T15:22:51;99794.25;;;16.43;100.00
24045;BME280;26257;49.442;8.422;2023-03-23T15:25:21;99795.31;;;16.36;100.00
24045;BME280;26257;49.442;8.422;2023-03-23T15:27:58;99772.22;;;16.37;100.00